createdAt,value
2018-04-16T00:00:46.336Z,99.99
2018-04-16T00:01:46.301Z,99.99
2018-04-16T00:02:46.290Z,99.99
2018-04-16T00:03:46.292Z,99.99
2018-04-16T00:04:46.278Z,99.99
2018-04-16T00:05:46.283Z,99.99
2018-04-16T00:06:46.290Z,99.99
2018-04-16T00:07:46.329Z,99.99
2018-04-16T00:08:46.306Z,99.99
2018-04-16T00:09:46.293Z,99.99
2018-04-16T00:10:46.298Z,99.99
2018-04-16T00:11:46.301Z,99.99
2018-04-16T00:12:46.316Z,99.99
2018-04-16T00:13:46.326Z,99.99
2018-04-16T00:14:46.298Z,99.99
2018-04-16T00:15:46.303Z,99.99
2018-04-16T00:16:46.325Z,99.99
2018-04-16T00:17:46.313Z,99.99
2018-04-16T00:18:46.318Z,99.99
2018-04-16T00:19:46.306Z,99.99
2018-04-16T00:20:46.317Z,99.99
2018-04-16T00:21:46.302Z,99.99
2018-04-16T00:22:46.311Z,99.99
2018-04-16T00:23:46.323Z,99.99
2018-04-16T00:24:46.317Z,99.99
2018-04-16T00:25:47.078Z,99.99
2018-04-16T00:26:48.149Z,99.99
2018-04-16T00:27:46.356Z,99.99
2018-04-16T00:28:46.340Z,99.99
2018-04-16T00:29:46.352Z,99.99
2018-04-16T00:30:46.336Z,99.99
2018-04-16T00:31:46.346Z,99.99
2018-04-16T00:32:46.363Z,99.99
2018-04-16T00:33:46.361Z,99.99
2018-04-16T00:34:46.370Z,99.99
2018-04-16T00:35:48.137Z,99.99
2018-04-16T00:36:46.389Z,99.99
2018-04-16T00:37:46.354Z,99.99
2018-04-16T00:38:46.403Z,99.99
2018-04-16T00:39:46.359Z,99.99
2018-04-16T00:40:46.375Z,99.99
2018-04-16T00:41:46.378Z,99.99
2018-04-16T00:42:46.374Z,99.99
2018-04-16T00:43:46.369Z,99.99
2018-04-16T00:44:46.375Z,99.99
2018-04-16T00:45:46.391Z,99.99
2018-04-16T00:46:46.390Z,99.99
2018-04-16T00:47:46.378Z,99.99
2018-04-16T00:48:46.388Z,99.99
2018-04-16T00:49:46.374Z,99.99
2018-04-16T00:50:46.387Z,99.99
2018-04-16T00:51:46.398Z,99.99
2018-04-16T00:52:46.394Z,99.99
2018-04-16T00:53:46.393Z,99.99
2018-04-16T00:54:48.160Z,99.99
2018-04-16T00:55:46.428Z,99.99
2018-04-16T00:56:46.433Z,99.99
2018-04-16T00:57:46.472Z,99.99
2018-04-16T00:58:46.412Z,99.99
2018-04-16T00:59:46.400Z,99.99
2018-04-16T01:00:46.458Z,99.99
2018-04-16T01:01:47.086Z,99.99
2018-04-16T01:02:46.410Z,99.99
2018-04-16T01:03:46.427Z,99.99
2018-04-16T01:04:46.432Z,99.99
2018-04-16T01:05:46.506Z,99.99
2018-04-16T01:06:47.088Z,99.99
2018-04-16T01:07:46.429Z,99.99
2018-04-16T01:08:46.437Z,99.99
2018-04-16T01:09:46.433Z,99.99
2018-04-16T01:10:46.445Z,99.99
2018-04-16T01:11:46.427Z,99.99
2018-04-16T01:12:46.450Z,99.99
2018-04-16T01:13:46.463Z,99.99
2018-04-16T01:14:48.155Z,99.99
2018-04-16T01:15:46.451Z,99.99
2018-04-16T01:16:46.445Z,99.99
2018-04-16T01:17:46.455Z,99.99
2018-04-16T01:18:46.449Z,99.99
2018-04-16T01:19:46.545Z,99.99
2018-04-16T01:20:46.465Z,99.99
2018-04-16T01:21:46.488Z,99.99
2018-04-16T01:22:46.471Z,99.99
2018-04-16T01:23:46.500Z,99.99
2018-04-16T01:24:46.463Z,99.99
2018-04-16T01:25:46.480Z,99.99
2018-04-16T01:26:46.459Z,99.99
2018-04-16T01:27:46.499Z,99.99
2018-04-16T01:28:46.521Z,99.99
2018-04-16T01:29:46.477Z,99.99
2018-04-16T01:30:46.479Z,99.99
2018-04-16T01:31:46.516Z,99.99
2018-04-16T01:32:46.486Z,99.99
2018-04-16T01:33:46.496Z,99.99
2018-04-16T01:34:46.505Z,99.99
2018-04-16T01:35:46.508Z,99.99
2018-04-16T01:36:46.500Z,99.99
2018-04-16T01:37:46.519Z,99.99
2018-04-16T01:38:46.518Z,99.99
2018-04-16T01:39:48.166Z,99.99
2018-04-16T01:40:46.503Z,99.99
2018-04-16T01:41:46.515Z,99.99
2018-04-16T01:42:46.528Z,99.99
2018-04-16T01:43:46.536Z,99.99
2018-04-16T01:44:46.536Z,99.99
2018-04-16T01:45:46.532Z,99.99
2018-04-16T01:46:46.526Z,99.99
2018-04-16T01:47:46.536Z,99.99
2018-04-16T01:48:46.515Z,99.99
2018-04-16T01:49:46.538Z,99.99
2018-04-16T01:50:46.546Z,99.99
2018-04-16T01:51:46.535Z,99.99
2018-04-16T01:52:46.549Z,99.99
2018-04-16T01:53:46.576Z,99.99
2018-04-16T01:54:46.554Z,99.99
2018-04-16T01:55:46.572Z,99.99
2018-04-16T01:56:46.557Z,99.99
2018-04-16T01:57:46.559Z,99.99
2018-04-16T01:58:46.561Z,99.99
2018-04-16T01:59:46.551Z,99.99
2018-04-16T02:00:46.603Z,99.99
2018-04-16T02:01:46.548Z,99.99
2018-04-16T02:02:46.587Z,99.99
2018-04-16T02:03:46.597Z,99.99
2018-04-16T02:04:46.557Z,99.99
2018-04-16T02:05:50.104Z,99.99
2018-04-16T02:06:48.177Z,99.99
2018-04-16T02:07:46.569Z,99.99
2018-04-16T02:08:46.560Z,99.99
2018-04-16T02:09:46.579Z,99.99
2018-04-16T02:10:46.599Z,99.99
2018-04-16T02:11:46.572Z,99.99
2018-04-16T02:12:46.584Z,99.99
2018-04-16T02:13:46.586Z,99.99
2018-04-16T02:14:46.598Z,99.99
2018-04-16T02:15:46.605Z,99.99
2018-04-16T02:16:46.595Z,99.99
2018-04-16T02:17:46.606Z,99.99
2018-04-16T02:18:46.583Z,99.99
2018-04-16T02:19:46.608Z,99.99
2018-04-16T02:20:46.590Z,99.99
2018-04-16T02:21:46.598Z,99.99
2018-04-16T02:22:46.603Z,99.99
2018-04-16T02:23:46.595Z,99.99
2018-04-16T02:24:46.606Z,99.99
2018-04-16T02:25:46.602Z,99.99
2018-04-16T02:26:46.629Z,99.99
2018-04-16T02:27:46.612Z,99.99
2018-04-16T02:28:46.614Z,99.99
2018-04-16T02:29:46.636Z,99.99
2018-04-16T02:30:46.616Z,99.99
2018-04-16T02:31:46.622Z,99.99
2018-04-16T02:32:46.614Z,99.99
2018-04-16T02:33:46.626Z,99.99
2018-04-16T02:34:46.629Z,99.99
2018-04-16T02:35:46.646Z,99.99
2018-04-16T02:36:46.646Z,99.99
2018-04-16T02:37:46.640Z,99.99
2018-04-16T02:38:49.181Z,99.99
2018-04-16T02:39:46.787Z,99.99
2018-04-16T02:45:20.559Z,99.99
2018-04-16T02:46:22.371Z,99.99
2018-04-16T02:47:23.375Z,99.99
2018-04-16T02:50:25.596Z,99.99
2018-04-16T02:51:21.291Z,99.99
2018-04-16T02:52:21.989Z,99.99
2018-04-16T02:53:22.643Z,99.99
2018-04-16T02:54:22.531Z,99.99
2018-04-16T02:55:23.976Z,99.99
2018-04-16T02:56:23.638Z,99.99
2018-04-16T02:57:23.703Z,99.99
2018-04-16T02:58:22.549Z,99.99
2018-04-16T02:59:23.252Z,99.99
2018-04-16T03:00:23.014Z,99.99
2018-04-16T03:01:20.342Z,99.99
2018-04-16T03:02:26.594Z,99.99
2018-04-16T03:03:21.596Z,99.99
2018-04-16T03:04:22.506Z,99.99
2018-04-16T03:05:21.978Z,99.99
2018-04-16T03:06:20.961Z,99.99
2018-04-16T03:07:24.297Z,99.99
2018-04-16T03:08:23.109Z,99.99
2018-04-16T03:09:22.263Z,99.99
2018-04-16T03:10:22.343Z,99.99
2018-04-16T03:11:20.916Z,99.99
2018-04-16T03:12:21.858Z,99.99
2018-04-16T03:13:21.261Z,99.99
2018-04-16T03:14:23.409Z,99.99
2018-04-16T03:15:22.754Z,99.99
2018-04-16T03:16:23.236Z,99.99
2018-04-16T03:17:19.586Z,99.99
2018-04-16T03:18:20.284Z,99.99
2018-04-16T03:19:21.091Z,99.99
2018-04-16T03:20:22.898Z,99.99
2018-04-16T03:21:20.565Z,99.99
2018-04-16T03:22:21.506Z,99.99
2018-04-16T03:23:26.105Z,99.99
2018-04-16T03:24:23.678Z,99.99
2018-04-16T03:25:23.001Z,99.99
2018-04-16T03:26:22.631Z,99.99
2018-04-16T03:27:22.201Z,99.99
2018-04-16T03:28:20.101Z,99.99
2018-04-16T03:29:19.456Z,99.99
2018-04-16T03:30:19.719Z,99.99
2018-04-16T03:31:20.506Z,99.99
2018-04-16T03:32:20.023Z,99.99
2018-04-16T03:33:22.175Z,99.99
2018-04-16T03:34:23.540Z,99.99
2018-04-16T03:35:23.982Z,99.99
2018-04-16T03:36:24.842Z,99.99
2018-04-16T03:37:21.551Z,99.99
2018-04-16T03:38:22.393Z,99.99
2018-04-16T03:39:20.845Z,99.99
2018-04-16T03:40:21.978Z,99.99
2018-04-16T03:41:22.226Z,99.99
2018-04-16T03:42:23.043Z,99.99
2018-04-16T03:43:20.564Z,99.99
2018-04-16T03:44:22.239Z,99.99
2018-04-16T03:45:21.435Z,99.99
2018-04-16T03:46:25.885Z,99.99
2018-04-16T03:47:24.450Z,99.99
2018-04-16T03:48:22.993Z,99.99
2018-04-16T03:49:23.894Z,99.99
2018-04-16T03:50:25.179Z,99.99
2018-04-16T03:51:23.519Z,99.99
2018-04-16T03:52:22.921Z,99.99
2018-04-16T03:53:23.701Z,99.99
2018-04-16T03:54:23.254Z,99.99
2018-04-16T03:55:23.107Z,99.99
2018-04-16T03:56:20.224Z,99.99
2018-04-16T03:57:20.713Z,99.99
2018-04-16T03:58:24.106Z,99.99
2018-04-16T03:59:21.291Z,99.99
2018-04-16T04:00:21.070Z,99.99
2018-04-16T04:01:20.360Z,99.99
2018-04-16T04:02:22.520Z,99.99
2018-04-16T04:03:21.885Z,99.99
2018-04-16T04:04:20.113Z,99.99
2018-04-16T04:05:21.386Z,99.99
2018-04-16T04:06:19.966Z,99.99
2018-04-16T04:07:21.564Z,99.99
2018-04-16T04:08:20.450Z,99.99
2018-04-16T04:09:21.758Z,99.99
2018-04-16T04:10:22.224Z,99.99
2018-04-16T04:11:21.463Z,99.99
2018-04-16T04:12:21.443Z,99.99
2018-04-16T04:13:22.075Z,99.99
2018-04-16T04:14:21.935Z,99.99
2018-04-16T04:15:19.943Z,99.99
2018-04-16T04:16:20.474Z,99.99
2018-04-16T04:17:20.503Z,99.99
2018-04-16T04:18:22.844Z,99.99
2018-04-16T04:19:21.085Z,99.99
2018-04-16T04:20:20.896Z,99.99
2018-04-16T04:21:22.588Z,99.99
2018-04-16T04:22:23.429Z,99.99
2018-04-16T04:23:20.846Z,99.99
2018-04-16T04:24:23.600Z,99.99
2018-04-16T04:25:20.881Z,99.99
2018-04-16T04:26:21.495Z,99.99
2018-04-16T04:27:19.923Z,99.99
2018-04-16T04:28:21.895Z,99.99
2018-04-16T04:29:20.505Z,99.99
2018-04-16T04:30:22.036Z,99.99
2018-04-16T04:31:21.999Z,99.99
2018-04-16T04:32:20.874Z,99.99
2018-04-16T04:33:21.041Z,99.99
2018-04-16T04:34:24.206Z,99.99
2018-04-16T04:35:21.293Z,99.99
2018-04-16T04:36:22.068Z,99.99
2018-04-16T04:37:20.499Z,99.99
2018-04-16T04:38:22.205Z,99.99
2018-04-16T04:39:20.494Z,99.99
2018-04-16T04:40:24.173Z,99.99
2018-04-16T04:41:20.695Z,99.99
2018-04-16T04:42:21.686Z,99.99
2018-04-16T04:43:20.914Z,99.99
2018-04-16T04:44:20.649Z,99.99
2018-04-16T04:45:22.973Z,99.99
2018-04-16T04:46:20.432Z,99.99
2018-04-16T04:47:20.299Z,99.99
2018-04-16T04:48:21.426Z,99.99
2018-04-16T04:49:21.357Z,99.99
2018-04-16T04:50:20.916Z,99.99
2018-04-16T04:51:21.643Z,99.99
2018-04-16T04:52:20.152Z,99.99
2018-04-16T04:53:20.795Z,99.99
2018-04-16T04:55:25.412Z,99.99
2018-04-16T04:56:23.093Z,99.99
2018-04-16T04:57:20.423Z,99.99
2018-04-16T04:58:21.239Z,99.99
2018-04-16T04:59:20.391Z,99.99
2018-04-16T05:00:21.073Z,99.99
2018-04-16T05:01:19.681Z,99.99
2018-04-16T05:02:22.092Z,99.99
2018-04-16T05:03:21.179Z,99.99
2018-04-16T05:04:19.333Z,99.99
2018-04-16T05:05:19.307Z,99.99
2018-04-16T05:06:19.429Z,99.99
2018-04-16T05:07:20.099Z,99.99
2018-04-16T05:08:19.352Z,99.99
2018-04-16T05:09:19.337Z,99.99
2018-04-16T05:10:20.917Z,99.99
2018-04-16T05:11:19.351Z,99.99
2018-04-16T05:12:19.600Z,99.99
2018-04-16T05:13:19.335Z,99.99
2018-04-16T05:14:19.379Z,99.99
2018-04-16T05:15:19.596Z,99.99
2018-04-16T05:16:19.382Z,99.99
2018-04-16T05:17:20.245Z,99.99
2018-04-16T05:18:22.340Z,99.99
2018-04-16T05:19:19.351Z,99.99
2018-04-16T05:20:19.502Z,99.99
2018-04-16T05:21:21.056Z,99.99
2018-04-16T05:23:21.483Z,99.99
2018-04-16T05:24:25.341Z,99.99
2018-04-16T05:25:20.754Z,99.99
2018-04-16T05:26:27.589Z,99.99
2018-04-16T05:27:20.527Z,99.99
2018-04-16T05:28:25.996Z,99.99
2018-04-16T05:29:19.380Z,99.99
2018-04-16T05:30:27.957Z,99.99
2018-04-16T05:31:19.389Z,99.99
2018-04-16T05:32:25.474Z,99.99
2018-04-16T05:33:19.407Z,99.99
2018-04-16T05:34:24.772Z,99.99
2018-04-16T05:35:19.446Z,99.99
2018-04-16T05:36:20.797Z,99.99
2018-04-16T05:37:19.663Z,99.99
2018-04-16T05:39:21.134Z,99.99
2018-04-16T05:40:25.250Z,99.99
2018-04-16T05:41:20.312Z,98.38
2018-04-16T05:42:19.621Z,93.35
2018-04-16T05:43:19.470Z,91.53
2018-04-16T05:45:19.410Z,87.88
2018-04-16T05:46:23.980Z,85.42
2018-04-16T05:47:24.065Z,82.78
2018-04-16T05:48:21.060Z,81.34
2018-04-16T05:49:19.518Z,80.32
2018-04-16T05:50:25.721Z,82.30
2018-04-16T05:51:24.606Z,82.74
2018-04-16T05:52:27.816Z,82.87
2018-04-16T05:54:42.119Z,80.17
2018-04-16T05:55:29.016Z,78.63
2018-04-16T05:58:02.671Z,76.17
2018-04-16T05:58:27.516Z,76.07
2018-04-16T05:59:32.434Z,74.96
2018-04-16T06:00:35.275Z,75.09
2018-04-16T06:03:31.042Z,71.37
2018-04-16T06:05:26.222Z,71.08
2018-04-16T06:06:32.609Z,69.38
2018-04-16T06:07:20.181Z,70.15
2018-04-16T06:08:26.909Z,71.12
2018-04-16T06:10:22.543Z,69.48
2018-04-16T06:11:23.078Z,68.39
2018-04-16T06:12:27.754Z,66.94
2018-04-16T06:13:28.515Z,66.04
2018-04-16T06:14:26.474Z,67.49
2018-04-16T06:15:24.071Z,67.40
2018-04-16T06:20:23.053Z,73.55
2018-04-16T06:21:20.345Z,71.89
2018-04-16T06:25:51.811Z,65.82
2018-04-16T06:26:52.613Z,65.66
2018-04-16T06:27:51.798Z,65.47
2018-04-16T06:28:51.777Z,63.92
2018-04-16T06:29:53.623Z,65.50
2018-04-16T06:30:51.783Z,69.31
2018-04-16T06:31:52.622Z,73.63
2018-04-16T06:32:52.619Z,76.77
2018-04-16T06:33:51.815Z,79.13
2018-04-16T06:34:51.931Z,79.86
2018-04-16T06:35:51.822Z,80.99
2018-04-16T06:36:51.849Z,79.52
2018-04-16T06:37:51.858Z,80.24
2018-04-16T06:38:51.844Z,81.74
2018-04-16T06:39:51.848Z,82.84
2018-04-16T06:40:51.860Z,83.94
2018-04-16T06:41:51.869Z,82.53
2018-04-16T06:42:51.947Z,76.92
2018-04-16T06:43:51.865Z,70.96
2018-04-16T06:44:51.856Z,67.01
2018-04-16T06:45:51.876Z,63.79
2018-04-16T06:46:51.928Z,61.76
2018-04-16T06:47:51.947Z,61.40
2018-04-16T06:48:51.888Z,60.92
2018-04-16T06:49:51.898Z,59.53
2018-04-16T06:50:51.909Z,59.27
2018-04-16T06:51:51.924Z,58.65
2018-04-16T06:52:51.920Z,57.53
2018-04-16T06:53:51.930Z,56.92
2018-04-16T06:54:51.931Z,61.05
2018-04-16T06:55:51.951Z,61.63
2018-04-16T06:56:51.941Z,62.05
2018-04-16T06:57:52.633Z,61.54
2018-04-16T06:58:51.973Z,63.70
2018-04-16T06:59:51.980Z,63.60
2018-04-16T07:00:52.097Z,61.50
2018-04-16T07:01:52.004Z,58.42
2018-04-16T07:02:51.995Z,55.90
2018-04-16T07:03:52.004Z,57.56
2018-04-16T07:04:52.023Z,59.73
2018-04-16T07:05:52.006Z,61.96
2018-04-16T07:06:52.020Z,64.21
2018-04-16T07:07:52.024Z,62.66
2018-04-16T07:08:52.051Z,61.63
2018-04-16T07:09:52.058Z,63.12
2018-04-16T07:10:52.050Z,63.50
2018-04-16T07:11:52.098Z,62.95
2018-04-16T07:12:52.717Z,63.43
2018-04-16T07:13:52.140Z,65.30
2018-04-16T07:14:52.116Z,67.94
2018-04-16T07:15:52.160Z,69.09
2018-04-16T07:16:52.129Z,69.25
2018-04-16T07:17:52.118Z,70.53
2018-04-16T07:18:52.106Z,72.32
2018-04-16T07:19:52.115Z,74.50
2018-04-16T07:20:52.214Z,76.23
2018-04-16T07:21:52.130Z,76.00
2018-04-16T07:22:52.151Z,76.67
2018-04-16T07:23:52.166Z,77.92
2018-04-16T07:24:52.165Z,77.98
2018-04-16T07:25:52.344Z,78.65
2018-04-16T07:26:52.175Z,79.52
2018-04-16T07:27:52.276Z,79.22
2018-04-16T07:28:52.289Z,79.13
2018-04-16T07:29:52.200Z,79.42
2018-04-16T07:30:52.206Z,79.47
2018-04-16T07:31:52.235Z,79.96
2018-04-16T07:32:52.219Z,79.57
2018-04-16T07:33:52.214Z,79.76
2018-04-16T07:34:52.231Z,80.24
2018-04-16T07:35:52.330Z,81.10
2018-04-16T07:36:52.250Z,79.42
2018-04-16T07:37:52.238Z,76.56
2018-04-16T07:38:52.248Z,72.43
2018-04-16T07:39:52.249Z,67.46
2018-04-16T07:40:52.261Z,64.53
2018-04-16T07:41:52.294Z,62.56
2018-04-16T07:42:52.264Z,61.15
2018-04-16T07:43:52.304Z,58.98
2018-04-16T07:44:52.298Z,57.04
2018-04-16T07:45:52.313Z,56.94
2018-04-16T07:46:53.160Z,56.92
2018-04-16T07:47:52.358Z,55.22
2018-04-16T07:48:52.404Z,57.01
2018-04-16T07:49:52.337Z,57.69
2018-04-16T07:50:52.367Z,59.67
2018-04-16T07:51:52.329Z,62.08
2018-04-16T07:52:52.359Z,62.86
2018-04-16T07:53:52.468Z,63.34
2018-04-16T07:54:52.521Z,63.05
2018-04-16T07:55:52.416Z,65.14
2018-04-16T07:56:53.166Z,63.92
2018-04-16T07:57:53.395Z,63.43
2018-04-16T07:58:52.531Z,62.15
2018-04-16T07:59:52.429Z,60.89
2018-04-16T08:00:52.638Z,58.85
2018-04-16T08:01:52.412Z,56.61
2018-04-16T08:02:52.447Z,54.50
2018-04-16T08:03:52.522Z,52.56
2018-04-16T08:04:52.534Z,51.23
2018-04-16T08:05:52.509Z,52.20
2018-04-16T08:06:52.529Z,51.89
2018-04-16T08:07:52.476Z,53.22
2018-04-16T08:08:52.546Z,52.33
2018-04-16T08:09:52.663Z,50.80
2018-04-16T08:10:52.518Z,49.66
2018-04-16T08:11:52.515Z,48.68
2018-04-16T08:12:52.556Z,50.16
2018-04-16T08:13:52.604Z,52.08
2018-04-16T08:14:52.569Z,52.11
2018-04-16T08:15:52.596Z,52.95
2018-04-16T08:16:52.590Z,55.10
2018-04-16T08:17:52.614Z,56.86
2018-04-16T08:18:52.710Z,61.02
2018-04-16T08:19:52.785Z,59.66
2018-04-16T08:20:52.646Z,57.82
2018-04-16T08:21:52.666Z,58.63
2018-04-16T08:22:52.652Z,57.43
2018-04-16T08:23:52.661Z,54.38
2018-04-16T08:24:52.729Z,52.56
2018-04-16T08:25:52.762Z,57.18
2018-04-16T08:26:52.707Z,59.53
2018-04-16T08:27:52.763Z,57.98
2018-04-16T08:28:52.705Z,55.62
2018-04-16T08:29:52.731Z,54.74
2018-04-16T08:30:52.756Z,58.95
2018-04-16T08:31:53.262Z,62.15
2018-04-16T08:32:52.771Z,64.59
2018-04-16T08:33:52.786Z,65.08
2018-04-16T08:34:54.291Z,66.20
2018-04-16T08:35:52.809Z,67.52
2018-04-16T08:36:53.206Z,68.35
2018-04-16T08:37:52.871Z,69.31
2018-04-16T08:38:54.435Z,70.53
2018-04-16T08:39:52.858Z,69.99
2018-04-16T08:40:53.456Z,65.91
2018-04-16T08:41:52.893Z,60.95
2018-04-16T08:42:53.301Z,58.63
2018-04-16T08:43:52.961Z,58.57
2018-04-16T08:44:52.959Z,61.09
2018-04-16T08:45:53.201Z,61.57
2018-04-16T08:46:53.078Z,62.08
2018-04-16T08:47:55.802Z,58.92
2018-04-16T08:48:52.987Z,58.15
2018-04-16T08:49:53.670Z,60.71
2018-04-16T08:50:53.085Z,61.57
2018-04-16T08:51:53.337Z,61.02
2018-04-16T08:52:54.497Z,63.82
2018-04-16T08:54:53.023Z,65.85
2018-04-16T08:55:53.067Z,62.95
2018-04-16T08:56:53.042Z,61.80
2018-04-16T08:57:53.215Z,63.85
2018-04-16T08:58:53.050Z,63.34
2018-04-16T08:59:53.062Z,63.31
2018-04-16T09:00:53.113Z,60.96
2018-04-16T09:01:53.508Z,59.44
2018-04-16T09:02:53.085Z,58.02
2018-04-16T09:03:53.120Z,59.19
2018-04-16T09:04:53.108Z,61.60
2018-04-16T09:05:53.117Z,62.54
2018-04-16T09:06:53.138Z,63.18
2018-04-16T09:07:53.151Z,64.89
2018-04-16T09:08:53.167Z,66.88
2018-04-16T09:09:53.175Z,67.52
2018-04-16T09:10:53.179Z,68.29
2018-04-16T09:11:53.203Z,68.48
2018-04-16T09:12:53.813Z,68.77
2018-04-16T09:13:53.202Z,67.97
2018-04-16T09:14:53.225Z,65.75
2018-04-16T09:15:53.784Z,66.27
2018-04-16T09:16:53.243Z,66.14
2018-04-16T09:17:53.232Z,65.37
2018-04-16T09:18:53.255Z,63.60
2018-04-16T09:19:53.260Z,62.99
2018-04-16T09:20:53.400Z,64.05
2018-04-16T09:21:53.282Z,63.40
2018-04-16T09:22:53.336Z,62.76
2018-04-16T09:23:53.342Z,61.02
2018-04-16T09:24:53.343Z,61.09
2018-04-16T09:25:53.408Z,61.25
2018-04-16T09:26:53.345Z,60.83
2018-04-16T09:27:53.344Z,59.86
2018-04-16T09:28:53.923Z,59.86
2018-04-16T09:29:53.400Z,62.76
2018-04-16T09:30:53.382Z,63.79
2018-04-16T09:31:53.485Z,65.11
2018-04-16T09:32:53.427Z,65.75
2018-04-16T09:33:54.322Z,65.88
2018-04-16T09:34:53.403Z,65.20
2018-04-16T09:35:53.410Z,64.53
2018-04-16T09:36:53.479Z,65.98
2018-04-16T09:37:53.476Z,64.89
2018-04-16T09:38:54.339Z,63.34
2018-04-16T09:39:53.462Z,62.51
2018-04-16T09:40:53.477Z,59.86
2018-04-16T09:41:54.321Z,59.09
2018-04-16T09:42:53.510Z,58.35
2018-04-16T09:43:53.520Z,58.25
2018-04-16T09:44:53.498Z,58.35
2018-04-16T09:45:53.511Z,59.80
2018-04-16T09:46:53.525Z,62.66
2018-04-16T09:47:53.540Z,63.09
2018-04-16T09:48:53.531Z,62.73
2018-04-16T09:49:53.546Z,60.51
2018-04-16T09:50:53.603Z,59.02
2018-04-16T09:51:53.576Z,57.82
2018-04-16T09:52:53.593Z,55.17
2018-04-16T09:53:53.594Z,54.57
2018-04-16T09:54:54.346Z,55.11
2018-04-16T09:55:53.627Z,55.96
2018-04-16T09:56:53.636Z,57.87
2018-04-16T09:57:53.677Z,57.29
2018-04-16T09:58:53.643Z,57.96
2018-04-16T09:59:53.687Z,58.09
2018-04-16T10:00:53.728Z,58.80
2018-04-16T10:01:53.672Z,56.70
2018-04-16T10:02:53.739Z,55.56
2018-04-16T10:03:53.797Z,55.89
2018-04-16T10:04:53.737Z,56.57
2018-04-16T10:05:53.717Z,56.30
2018-04-16T10:06:54.338Z,54.69
2018-04-16T10:07:53.736Z,52.54
2018-04-16T10:08:53.764Z,50.62
2018-04-16T10:09:53.875Z,50.29
2018-04-16T10:10:53.809Z,48.44
2018-04-16T10:11:53.799Z,48.18
2018-04-16T10:12:53.869Z,47.64
2018-04-16T10:13:53.824Z,48.80
2018-04-16T10:14:53.815Z,49.39
2018-04-16T10:15:53.832Z,48.54
2018-04-16T10:16:53.872Z,47.83
2018-04-16T10:17:53.875Z,45.72
2018-04-16T10:18:53.915Z,43.71
2018-04-16T10:19:53.956Z,45.62
2018-04-16T10:20:53.941Z,49.58
2018-04-16T10:21:53.954Z,52.44
2018-04-16T10:22:54.684Z,51.32
2018-04-16T10:23:53.986Z,51.04
2018-04-16T10:24:53.973Z,52.44
2018-04-16T10:25:54.053Z,52.87
2018-04-16T10:26:55.364Z,53.31
2018-04-16T10:27:54.031Z,55.60
2018-04-16T10:28:54.097Z,56.40
2018-04-16T10:29:54.076Z,54.93
2018-04-16T10:30:54.256Z,55.05
2018-04-16T10:31:54.085Z,52.22
2018-04-16T10:32:54.117Z,52.10
2018-04-16T10:33:54.154Z,53.43
2018-04-16T10:34:54.161Z,55.73
2018-04-16T10:35:54.167Z,52.97
2018-04-16T10:36:54.169Z,50.72
2018-04-16T10:37:54.245Z,47.96
2018-04-16T10:38:54.200Z,49.68
2018-04-16T10:39:54.255Z,52.70
2018-04-16T10:40:54.235Z,51.52
2018-04-16T10:41:54.864Z,50.60
2018-04-16T10:42:54.454Z,50.04
2018-04-16T10:43:54.268Z,50.12
2018-04-16T10:44:54.310Z,50.02
2018-04-16T10:45:54.333Z,51.16
2018-04-16T10:46:54.351Z,52.06
2018-04-16T10:47:54.370Z,49.99
2018-04-16T10:48:54.355Z,49.92
2018-04-16T10:49:54.370Z,49.65
2018-04-16T10:50:54.395Z,50.60
2018-04-16T10:51:54.428Z,52.94
2018-04-16T10:52:54.419Z,54.36
2018-04-16T10:53:54.467Z,55.42
2018-04-16T10:54:54.450Z,54.29
2018-04-16T10:55:54.464Z,53.71
2018-04-16T10:56:54.509Z,55.49
2018-04-16T10:57:54.709Z,57.32
2018-04-16T10:58:54.527Z,56.39
2018-04-16T10:59:54.521Z,56.87
2018-04-16T11:00:54.609Z,57.42
2018-04-16T11:01:54.685Z,57.62
2018-04-16T11:02:54.574Z,58.19
2018-04-16T11:03:54.595Z,58.75
2018-04-16T11:04:54.589Z,58.72
2018-04-16T11:05:54.601Z,59.90
2018-04-16T11:06:54.613Z,57.84
2018-04-16T11:07:54.628Z,56.05
2018-04-16T11:08:54.644Z,54.63
2018-04-16T11:09:54.644Z,53.31
2018-04-16T11:10:54.737Z,51.66
2018-04-16T11:11:55.378Z,52.05
2018-04-16T11:12:54.787Z,53.71
2018-04-16T11:13:54.729Z,56.16
2018-04-16T11:14:54.717Z,58.19
2018-04-16T11:15:54.730Z,57.74
2018-04-16T11:16:54.745Z,56.07
2018-04-16T11:17:54.761Z,56.36
2018-04-16T11:18:54.796Z,57.49
2018-04-16T11:19:54.867Z,57.78
2018-04-16T11:20:54.826Z,58.26
2018-04-16T11:21:55.409Z,57.46
2018-04-16T11:22:54.809Z,57.94
2018-04-16T11:23:54.815Z,58.04
2018-04-16T11:24:54.837Z,59.20
2018-04-16T11:25:54.819Z,59.90
2018-04-16T11:26:54.858Z,58.75
2018-04-16T11:27:54.835Z,58.00
2018-04-16T11:28:54.866Z,58.07
2018-04-16T11:29:54.857Z,57.59
2018-04-16T11:30:54.879Z,58.52
2018-04-16T11:31:54.896Z,60.03
2018-04-16T11:32:55.084Z,59.55
2018-04-16T11:33:55.054Z,60.39
2018-04-16T11:34:54.907Z,60.52
2018-04-16T11:35:54.908Z,61.10
2018-04-16T11:36:54.917Z,59.84
2018-04-16T11:37:55.023Z,60.80
2018-04-16T11:38:54.924Z,59.58
2018-04-16T11:39:55.015Z,59.03
2018-04-16T11:40:55.897Z,60.16
2018-04-16T11:41:54.975Z,58.94
2018-04-16T11:42:55.896Z,58.55
2018-04-16T11:43:55.025Z,58.65
2018-04-16T11:44:55.910Z,58.42
2018-04-16T11:45:55.069Z,58.45
2018-04-16T11:46:55.002Z,57.78
2018-04-16T11:47:55.035Z,57.52
2018-04-16T11:48:55.064Z,58.48
2018-04-16T11:49:55.051Z,58.90
2018-04-16T11:50:55.904Z,57.54
2018-04-16T11:51:55.035Z,57.74
2018-04-16T11:52:55.063Z,56.39
2018-04-16T11:53:55.060Z,55.35
2018-04-16T11:54:55.075Z,56.68
2018-04-16T11:55:55.107Z,56.58
2018-04-16T11:56:55.096Z,54.55
2018-04-16T11:57:55.090Z,57.04
2018-04-16T11:58:55.099Z,58.77
2018-04-16T11:59:55.133Z,58.29
2018-04-16T12:00:55.299Z,58.55
2018-04-16T12:01:55.171Z,58.17
2018-04-16T12:02:55.150Z,58.91
2018-04-16T12:03:55.140Z,59.68
2018-04-16T12:04:55.135Z,59.90
2018-04-16T12:05:55.170Z,59.71
2018-04-16T12:06:55.164Z,58.75
2018-04-16T12:07:55.229Z,58.48
2018-04-16T12:08:55.193Z,58.68
2018-04-16T12:09:55.229Z,58.29
2018-04-16T12:10:55.294Z,58.55
2018-04-16T12:11:55.228Z,58.45
2018-04-16T12:12:55.217Z,58.94
2018-04-16T12:13:55.231Z,58.58
2018-04-16T12:14:55.241Z,58.68
2018-04-16T12:15:55.238Z,58.17
2018-04-16T12:16:55.222Z,57.85
2018-04-16T12:17:55.238Z,58.65
2018-04-16T12:18:55.250Z,58.36
2018-04-16T12:19:55.254Z,57.81
2018-04-16T12:20:55.319Z,57.32
2018-04-16T12:21:55.335Z,57.45
2018-04-16T12:22:55.274Z,56.87
2018-04-16T12:23:55.359Z,55.04
2018-04-16T12:24:55.323Z,55.71
2018-04-16T12:25:55.301Z,56.96
2018-04-16T12:26:55.373Z,56.00
2018-04-16T12:27:55.310Z,55.71
2018-04-16T12:28:55.313Z,55.52
2018-04-16T12:29:55.365Z,55.71
2018-04-16T12:30:55.333Z,56.87
2018-04-16T12:31:55.378Z,55.62
2018-04-16T12:32:55.335Z,57.06
2018-04-16T12:33:55.461Z,57.54
2018-04-16T12:34:55.362Z,55.52
2018-04-16T12:35:55.383Z,56.87
2018-04-16T12:36:55.369Z,55.13
2018-04-16T12:37:55.442Z,56.10
2018-04-16T12:38:55.927Z,56.56
2018-04-16T12:39:55.382Z,55.94
2018-04-16T12:40:55.393Z,56.91
2018-04-16T12:41:55.442Z,57.94
2018-04-16T12:42:55.432Z,58.52
2018-04-16T12:43:55.936Z,58.01
2018-04-16T12:44:55.444Z,58.04
2018-04-16T12:45:55.425Z,57.56
2018-04-16T12:46:55.537Z,56.49
2018-04-16T12:47:55.442Z,56.59
2018-04-16T12:48:55.483Z,55.08
2018-04-16T12:49:55.483Z,54.50
2018-04-16T12:50:55.507Z,54.11
2018-04-16T12:51:55.482Z,53.44
2018-04-16T12:52:55.522Z,53.25
2018-04-16T12:53:55.482Z,54.21
2018-04-16T12:54:55.503Z,54.91
2018-04-16T12:55:55.505Z,54.31
2018-04-16T12:56:55.594Z,55.01
2018-04-16T12:57:55.540Z,55.49
2018-04-16T12:58:55.515Z,55.20
2018-04-16T12:59:55.525Z,54.91
2018-04-16T13:00:55.567Z,56.46
2018-04-16T13:01:55.595Z,56.46
2018-04-16T13:02:55.540Z,55.94
2018-04-16T13:03:55.582Z,57.29
2018-04-16T13:04:55.563Z,57.59
2018-04-16T13:05:55.562Z,57.56
2018-04-16T13:06:55.597Z,58.33
2018-04-16T13:07:55.599Z,59.78
2018-04-16T13:08:55.583Z,60.38
2018-04-16T13:09:56.438Z,59.90
2018-04-16T13:10:55.641Z,59.93
2018-04-16T13:11:55.660Z,58.48
2018-04-16T13:12:55.632Z,57.64
2018-04-16T13:13:55.621Z,57.54
2018-04-16T13:14:55.626Z,57.23
2018-04-16T13:15:55.625Z,57.04
2018-04-16T13:16:55.672Z,56.21
2018-04-16T13:17:55.692Z,56.40